Time;durP1;ratioP1;P1;durP2;ratioP2;P2;SDS_P1;SDS_P2;PMS_P1;PMS_P2;Temp;Humidity;BMP_temperature;BMP_pressure;BME280_temperature;BME280_humidity;BME280_pressure;Samples;Min_cycle;Max_cycle;Signal;HPM_P1;HPM_P2
2022/10/24 00:02:20;;;;;;;9.73;6.20;;;12.60;99.90;;;;;;5053106;28;20212;-70
2022/10/24 00:04:47;;;;;;;8.60;5.80;;;12.60;99.90;;;;;;5053184;28;20217;-69
2022/10/24 00:07:14;;;;;;;10.27;5.93;;;12.60;99.90;;;;;;5052644;28;20207;-70
2022/10/24 00:09:41;;;;;;;11.43;5.80;;;12.60;99.90;;;;;;5053006;28;20213;-70
2022/10/24 00:12:08;;;;;;;8.47;5.77;;;12.50;99.90;;;;;;5032771;28;20220;-70
2022/10/24 00:14:36;;;;;;;14.60;5.70;;;12.50;99.90;;;;;;5032633;28;20222;-69
2022/10/24 00:17:03;;;;;;;7.20;4.73;;;12.50;99.90;;;;;;5032448;28;20217;-71
2022/10/24 00:19:31;;;;;;;7.63;5.37;;;12.50;99.90;;;;;;5042209;28;20204;-70
2022/10/24 00:21:58;;;;;;;9.67;5.47;;;12.50;99.90;;;;;;5037454;28;20209;-70
2022/10/24 00:24:25;;;;;;;7.83;5.30;;;12.50;99.90;;;;;;5032351;28;20202;-71
2022/10/24 00:26:52;;;;;;;10.20;4.93;;;12.40;99.90;;;;;;5032947;28;20213;-70
2022/10/24 00:29:19;;;;;;;9.30;5.13;;;12.40;99.90;;;;;;5032330;28;20206;-69
2022/10/24 00:31:45;;;;;;;7.30;4.80;;;12.30;99.90;;;;;;5032802;28;20209;-70
2022/10/24 00:34:12;;;;;;;6.67;4.50;;;12.30;99.90;;;;;;5032005;28;20225;-71
2022/10/24 00:36:40;;;;;;;8.27;5.40;;;12.30;99.90;;;;;;5035323;28;20197;-70
2022/10/24 00:39:07;;;;;;;6.83;4.73;;;12.30;99.90;;;;;;5050675;28;20201;-70
2022/10/24 00:41:36;;;;;;;7.70;5.07;;;12.20;99.90;;;;;;5040049;28;20224;-72
2022/10/24 00:44:19;;;;;;;7.27;4.90;;;12.20;99.90;;;;;;5044685;28;20623;-70
2022/10/24 00:46:50;;;;;;;7.67;5.03;;;12.20;99.90;;;;;;5051965;28;20718;-69
2022/10/24 00:49:20;;;;;;;9.03;4.80;;;12.30;99.90;;;;;;5047714;28;20202;-71
2022/10/24 00:51:53;;;;;;;10.57;5.57;;;12.20;99.90;;;;;;5052095;28;20196;-70
2022/10/24 00:54:21;;;;;;;8.70;5.70;;;12.20;99.90;;;;;;5052146;28;20541;-71
2022/10/24 00:56:58;;;;;;;8.57;5.83;;;12.20;99.90;;;;;;5051999;28;20280;-69
2022/10/24 00:59:26;;;;;;;10.90;5.90;;;12.20;99.90;;;;;;5051719;28;20200;-69
2022/10/24 01:01:53;;;;;;;10.57;5.83;;;12.20;99.90;;;;;;5050559;28;20213;-70
2022/10/24 01:04:20;;;;;;;10.43;5.90;;;12.20;99.90;;;;;;5051312;28;20228;-70
2022/10/24 01:06:57;;;;;;;12.60;6.60;;;12.20;99.90;;;;;;5051816;28;20208;-71
2022/10/24 01:09:39;;;;;;;11.83;6.77;;;12.20;99.90;;;;;;5051836;28;20193;-70
2022/10/24 01:12:20;;;;;;;10.87;6.40;;;12.20;99.90;;;;;;5051387;28;20197;-71
2022/10/24 01:14:55;;;;;;;9.80;6.37;;;12.20;99.90;;;;;;5051441;28;20205;-70
2022/10/24 01:17:30;;;;;;;9.67;6.63;;;12.20;99.90;;;;;;5049910;28;20212;-69
2022/10/24 01:20:23;;;;;;;11.40;6.07;;;12.20;99.90;;;;;;5051324;28;20216;-69
2022/10/24 01:23:06;;;;;;;11.60;6.20;;;12.20;99.90;;;;;;5048638;28;20201;-70
2022/10/24 01:25:41;;;;;;;10.90;6.53;;;12.20;99.90;;;;;;5049559;28;20209;-69
2022/10/24 01:28:11;;;;;;;9.83;6.40;;;12.20;99.90;;;;;;5051335;28;20239;-71
2022/10/24 01:30:43;;;;;;;12.77;7.37;;;12.20;99.90;;;;;;5051966;28;20212;-70
2022/10/24 01:33:18;;;;;;;10.53;6.80;;;12.20;99.90;;;;;;5051005;28;20199;-69
2022/10/24 01:35:51;;;;;;;11.77;7.33;;;12.20;99.90;;;;;;5031386;28;20213;-69
2022/10/24 01:38:24;;;;;;;14.17;7.63;;;12.10;99.90;;;;;;5031889;28;20648;-71
2022/10/24 01:40:53;;;;;;;14.00;7.10;;;12.10;99.90;;;;;;5031114;28;20190;-69
2022/10/24 01:43:26;;;;;;;12.20;6.93;;;12.10;99.90;;;;;;5040992;28;20208;-69
2022/10/24 01:46:01;;;;;;;12.87;7.23;;;12.10;99.90;;;;;;5051115;28;20185;-70
2022/10/24 01:48:30;;;;;;;13.93;7.37;;;12.10;99.90;;;;;;5051078;28;20190;-70
2022/10/24 01:51:00;;;;;;;12.07;7.30;;;12.10;99.90;;;;;;5051246;28;20205;-69
2022/10/24 01:53:29;;;;;;;11.27;7.47;;;12.10;99.90;;;;;;5051454;28;20212;-70
2022/10/24 01:55:57;;;;;;;13.70;7.60;;;12.00;99.90;;;;;;5047036;28;20229;-70
2022/10/24 01:58:25;;;;;;;11.83;7.33;;;12.00;99.90;;;;;;5051324;28;20209;-70
2022/10/24 02:00:54;;;;;;;16.43;7.77;;;12.00;99.90;;;;;;5051290;28;20201;-70
2022/10/24 02:03:30;;;;;;;11.70;7.10;;;12.00;99.90;;;;;;5050959;28;20225;-70
2022/10/24 02:06:01;;;;;;;15.80;8.00;;;12.10;99.90;;;;;;5051272;28;20185;-71
2022/10/24 02:08:32;;;;;;;10.93;7.27;;;12.10;99.90;;;;;;5051395;28;20189;-71
2022/10/24 02:11:02;;;;;;;11.90;7.40;;;12.10;99.90;;;;;;5049223;28;20549;-69
2022/10/24 02:13:35;;;;;;;11.90;7.27;;;12.00;99.90;;;;;;5051101;28;20219;-70
2022/10/24 02:16:03;;;;;;;12.40;7.30;;;12.00;99.90;;;;;;5054736;28;20213;-71
2022/10/24 02:18:34;;;;;;;14.10;7.50;;;12.00;99.90;;;;;;5055267;28;20566;-71
2022/10/24 02:21:10;;;;;;;11.37;7.03;;;12.00;99.90;;;;;;5055119;28;20196;-71
2022/10/24 02:23:43;;;;;;;14.13;7.73;;;12.00;99.90;;;;;;5055071;28;20548;-69
2022/10/24 02:26:20;;;;;;;13.93;7.57;;;12.00;99.90;;;;;;5046952;28;20201;-69
2022/10/24 02:28:49;;;;;;;11.73;7.40;;;12.00;99.90;;;;;;5035104;28;20548;-69
2022/10/24 02:31:22;;;;;;;14.77;8.00;;;11.90;99.90;;;;;;5034770;28;20206;-70
2022/10/24 02:33:52;;;;;;;14.23;8.37;;;11.90;99.90;;;;;;5034822;28;20190;-70
2022/10/24 02:36:25;;;;;;;15.73;8.03;;;11.90;99.90;;;;;;5034120;28;20584;-70
2022/10/24 02:38:53;;;;;;;13.10;7.37;;;11.90;99.90;;;;;;5034817;28;20214;-70
2022/10/24 02:41:24;;;;;;;12.83;7.80;;;11.90;99.90;;;;;;5034989;28;20231;-70
2022/10/24 02:43:52;;;;;;;11.07;7.47;;;11.90;99.90;;;;;;5034703;28;20201;-71
2022/10/24 02:46:20;;;;;;;14.80;8.60;;;11.80;99.90;;;;;;5034330;28;20229;-69
2022/10/24 02:48:53;;;;;;;12.13;8.17;;;11.90;99.90;;;;;;5034625;28;20195;-69
2022/10/24 02:51:22;;;;;;;13.30;8.13;;;11.90;99.90;;;;;;5034139;28;20201;-70
2022/10/24 02:53:50;;;;;;;11.87;7.93;;;11.80;99.90;;;;;;5044695;28;20201;-70
2022/10/24 02:56:17;;;;;;;13.90;8.47;;;11.90;99.90;;;;;;5054238;28;20224;-69
2022/10/24 02:58:43;;;;;;;17.17;8.00;;;11.80;99.90;;;;;;5054168;28;20216;-71
2022/10/24 03:01:10;;;;;;;12.63;8.23;;;11.80;99.90;;;;;;5054331;28;20202;-69
2022/10/24 03:03:37;;;;;;;12.20;8.00;;;11.80;99.90;;;;;;5054252;28;20205;-69
2022/10/24 03:06:06;;;;;;;12.60;7.97;;;11.80;99.90;;;;;;5054457;28;20216;-70
2022/10/24 03:08:33;;;;;;;17.40;8.83;;;11.80;99.90;;;;;;5053234;28;20209;-69
2022/10/24 03:11:00;;;;;;;15.60;9.17;;;11.80;99.90;;;;;;5054132;28;20211;-70
2022/10/24 03:13:27;;;;;;;13.77;9.50;;;11.80;99.90;;;;;;5054293;28;20201;-70
2022/10/24 03:15:53;;;;;;;13.70;9.50;;;11.90;99.90;;;;;;5053989;28;20809;-70
2022/10/24 03:18:20;;;;;;;17.07;8.83;;;11.90;99.90;;;;;;5054207;28;20667;-69
2022/10/24 03:20:47;;;;;;;17.47;9.07;;;11.90;99.90;;;;;;5053932;28;20560;-71
2022/10/24 03:23:18;;;;;;;17.10;9.47;;;11.90;99.90;;;;;;5052419;28;20216;-71
2022/10/24 03:25:44;;;;;;;16.53;9.77;;;11.90;99.90;;;;;;5053192;28;20284;-71
2022/10/24 03:28:11;;;;;;;14.87;9.07;;;11.90;99.90;;;;;;5053631;28;20209;-70
2022/10/24 03:30:38;;;;;;;14.03;9.70;;;11.90;99.90;;;;;;5053817;28;20575;-69
2022/10/24 03:33:05;;;;;;;16.93;10.57;;;11.90;99.90;;;;;;5034171;28;20236;-70
2022/10/24 03:35:32;;;;;;;14.93;10.33;;;11.90;99.90;;;;;;5033756;28;20229;-69
2022/10/24 03:37:58;;;;;;;21.10;10.27;;;11.90;99.90;;;;;;5039896;28;20657;-71
2022/10/24 03:40:27;;;;;;;14.97;10.03;;;11.90;99.90;;;;;;5039854;28;20232;-70
2022/10/24 03:42:54;;;;;;;15.63;10.97;;;11.90;99.90;;;;;;5068783;28;20655;-71
2022/10/24 03:45:21;;;;;;;18.97;9.73;;;11.90;99.90;;;;;;5073506;28;20227;-70
2022/10/24 03:47:48;;;;;;;14.80;10.50;;;12.00;99.90;;;;;;5072537;28;20236;-70
2022/10/24 03:50:14;;;;;;;16.23;10.47;;;12.00;99.90;;;;;;5073169;28;20205;-70
2022/10/24 03:52:41;;;;;;;18.50;10.60;;;12.00;99.90;;;;;;5061935;28;20552;-71
2022/10/24 03:55:09;;;;;;;13.67;9.37;;;12.00;99.90;;;;;;5052433;28;20208;-70
2022/10/24 03:57:37;;;;;;;15.20;9.67;;;12.00;99.90;;;;;;5052946;28;20213;-70
2022/10/24 04:00:05;;;;;;;17.10;9.93;;;12.00;99.90;;;;;;5053441;28;20681;-71
2022/10/24 04:02:32;;;;;;;20.73;11.50;;;12.00;99.90;;;;;;5052940;28;20201;-69
2022/10/24 04:04:59;;;;;;;18.87;12.17;;;12.00;99.90;;;;;;5052468;28;20209;-69
2022/10/24 04:07:26;;;;;;;20.67;12.07;;;12.00;99.90;;;;;;5037165;28;20216;-70
2022/10/24 04:09:52;;;;;;;20.63;13.67;;;12.00;99.90;;;;;;5033252;28;20206;-69
2022/10/24 04:12:19;;;;;;;21.87;12.63;;;12.00;99.90;;;;;;5032890;28;20247;-70
2022/10/24 04:14:47;;;;;;;17.67;10.30;;;12.00;99.90;;;;;;5032566;28;20352;-69
2022/10/24 04:17:14;;;;;;;18.03;10.87;;;12.00;99.90;;;;;;5032833;28;20652;-71
2022/10/24 04:19:41;;;;;;;16.33;10.90;;;12.10;99.90;;;;;;5032790;28;20588;-72
2022/10/24 04:22:08;;;;;;;19.27;12.07;;;12.10;99.90;;;;;;5047519;28;20212;-70
2022/10/24 04:24:36;;;;;;;16.13;10.70;;;12.10;99.90;;;;;;5051393;28;20293;-70
2022/10/24 04:27:03;;;;;;;17.00;11.17;;;12.10;99.90;;;;;;5052887;28;20208;-69
2022/10/24 04:29:30;;;;;;;16.70;10.67;;;12.10;99.90;;;;;;5050469;28;20539;-71
2022/10/24 04:31:58;;;;;;;16.83;10.80;;;12.10;99.90;;;;;;5052646;28;20556;-72
2022/10/24 04:34:25;;;;;;;16.97;10.33;;;12.10;99.90;;;;;;5052197;28;20216;-69
2022/10/24 04:36:52;;;;;;;18.67;10.40;;;12.10;99.90;;;;;;5050926;28;20225;-71
2022/10/24 04:39:19;;;;;;;17.40;11.23;;;12.10;99.90;;;;;;5051017;28;20205;-69
2022/10/24 04:41:46;;;;;;;17.50;10.73;;;12.10;99.90;;;;;;5052165;28;20628;-70
2022/10/24 04:44:13;;;;;;;23.23;11.13;;;12.10;99.90;;;;;;5052589;28;20662;-70
2022/10/24 04:46:40;;;;;;;20.23;11.00;;;12.10;99.90;;;;;;5058799;28;20656;-71
2022/10/24 04:49:08;;;;;;;18.27;11.40;;;12.10;99.90;;;;;;5060147;28;20552;-70
2022/10/24 04:51:35;;;;;;;20.73;11.40;;;12.10;99.90;;;;;;5057449;28;20251;-71
2022/10/24 04:54:02;;;;;;;20.80;12.33;;;12.00;99.90;;;;;;5059969;28;20211;-69
2022/10/24 04:56:29;;;;;;;18.33;12.23;;;12.10;99.90;;;;;;5057144;28;20222;-70
2022/10/24 04:58:56;;;;;;;21.80;12.73;;;12.10;99.90;;;;;;5061805;28;20581;-70
2022/10/24 05:01:22;;;;;;;19.73;12.30;;;12.10;99.90;;;;;;5062455;28;20290;-70
2022/10/24 05:03:49;;;;;;;21.03;12.10;;;12.10;99.90;;;;;;5060795;28;20201;-69
2022/10/24 05:06:17;;;;;;;19.37;12.37;;;12.10;99.90;;;;;;5060844;28;20201;-71
2022/10/24 05:08:44;;;;;;;17.43;11.23;;;12.10;99.90;;;;;;5032316;28;20208;-71
2022/10/24 05:11:11;;;;;;;15.53;11.40;;;12.10;99.90;;;;;;5032155;28;20309;-71
2022/10/24 05:13:40;;;;;;;18.63;11.80;;;12.10;99.90;;;;;;5032119;28;20210;-70
2022/10/24 05:16:07;;;;;;;22.30;12.30;;;12.20;99.90;;;;;;5046991;28;20243;-71
2022/10/24 05:18:34;;;;;;;21.23;12.97;;;12.20;99.90;;;;;;5060600;28;20205;-70
2022/10/24 05:21:01;;;;;;;18.07;11.20;;;12.20;99.90;;;;;;5051808;28;20208;-70
2022/10/24 05:23:29;;;;;;;19.07;11.33;;;12.20;99.90;;;;;;5051555;28;20216;-71
2022/10/24 05:25:56;;;;;;;19.03;12.03;;;12.20;99.90;;;;;;5055850;28;20213;-71
2022/10/24 05:28:23;;;;;;;17.47;11.43;;;12.30;99.90;;;;;;5060038;28;21443;-70
2022/10/24 05:30:50;;;;;;;20.07;11.70;;;12.30;99.90;;;;;;5056541;28;20211;-69
2022/10/24 05:33:17;;;;;;;18.37;11.97;;;12.30;99.90;;;;;;5061091;28;20207;-69
2022/10/24 05:35:43;;;;;;;16.70;10.93;;;12.30;99.90;;;;;;5059789;28;20220;-70
2022/10/24 05:38:10;;;;;;;20.13;11.77;;;12.30;99.90;;;;;;5056099;28;20199;-71
2022/10/24 05:40:38;;;;;;;20.17;11.83;;;12.40;99.90;;;;;;5048560;28;20197;-71
2022/10/24 05:43:05;;;;;;;19.33;12.23;;;12.40;99.90;;;;;;5051843;28;20201;-72
2022/10/24 05:45:32;;;;;;;22.87;13.60;;;12.40;99.90;;;;;;5050077;28;20232;-70
2022/10/24 05:47:59;;;;;;;17.67;12.53;;;12.40;99.90;;;;;;5031493;28;20225;-71
2022/10/24 05:50:28;;;;;;;18.93;12.13;;;12.40;99.90;;;;;;5030814;28;20599;-70
2022/10/24 05:52:55;;;;;;;19.80;12.37;;;12.40;99.90;;;;;;5031993;28;20245;-72
2022/10/24 05:55:22;;;;;;;24.87;14.13;;;12.40;99.90;;;;;;5031445;28;20226;-70
2022/10/24 05:57:50;;;;;;;21.37;12.83;;;12.50;99.90;;;;;;5031390;28;20222;-71
2022/10/24 06:00:18;;;;;;;19.67;13.10;;;12.50;99.90;;;;;;5031602;28;20212;-70
2022/10/24 06:02:45;;;;;;;25.77;13.77;;;12.50;99.90;;;;;;5044899;28;20220;-70
2022/10/24 06:05:13;;;;;;;23.20;13.53;;;12.50;99.90;;;;;;5051108;28;20288;-69
2022/10/24 06:07:41;;;;;;;21.70;13.27;;;12.60;99.90;;;;;;5051517;28;20201;-71
2022/10/24 06:10:09;;;;;;;22.47;14.03;;;12.60;99.90;;;;;;5043388;28;20546;-70
2022/10/24 06:12:36;;;;;;;23.97;14.60;;;12.60;99.90;;;;;;5030802;28;20217;-72
2022/10/24 06:15:06;;;;;;;22.47;14.30;;;12.70;99.90;;;;;;5031634;28;20210;-72
2022/10/24 06:17:34;;;;;;;21.63;13.83;;;12.70;99.90;;;;;;5031170;28;20214;-71
2022/10/24 06:20:01;;;;;;;22.33;13.90;;;12.70;99.90;;;;;;5037023;28;20213;-71
2022/10/24 06:22:28;;;;;;;21.70;13.87;;;12.80;99.90;;;;;;5051109;28;20205;-71
2022/10/24 06:24:55;;;;;;;26.80;15.07;;;12.80;99.90;;;;;;5051862;28;20615;-70
2022/10/24 06:27:22;;;;;;;25.40;15.40;;;12.80;99.90;;;;;;5047242;28;20222;-71
2022/10/24 06:29:49;;;;;;;26.77;14.70;;;12.90;99.90;;;;;;5045493;28;20204;-70
2022/10/24 06:32:17;;;;;;;22.17;14.73;;;12.90;99.90;;;;;;5070795;28;20215;-70
2022/10/24 06:34:44;;;;;;;26.33;14.57;;;12.90;99.90;;;;;;5052461;28;20210;-70
2022/10/24 06:37:11;;;;;;;24.17;14.57;;;12.90;99.90;;;;;;5030764;28;20226;-71
2022/10/24 10:04:41;;;;;;;19.07;12.70;;;13.70;99.90;;;;;;5062987;28;20553;-67
2022/10/24 10:07:10;;;;;;;17.97;12.20;;;14.40;99.90;;;;;;5065080;27;20284;-68
2022/10/24 10:09:41;;;;;;;24.67;12.53;;;14.50;99.90;;;;;;5065147;28;20567;-68
2022/10/24 10:12:26;;;;;;;23.93;13.93;;;14.50;99.90;;;;;;5064127;27;20185;-68
2022/10/24 10:14:53;;;;;;;22.00;13.33;;;14.60;99.90;;;;;;5102330;27;20194;-67
2022/10/24 10:17:24;;;;;;;29.43;15.77;;;14.60;99.90;;;;;;5045851;28;20574;-67
2022/10/24 10:19:53;;;;;;;23.77;13.30;;;14.60;99.90;;;;;;5045625;28;20214;-67
2022/10/24 10:22:26;;;;;;;24.60;14.20;;;14.60;99.90;;;;;;5044990;27;20232;-68
2022/10/24 10:24:53;;;;;;;27.10;15.57;;;14.60;99.90;;;;;;5045230;28;20213;-66
2022/10/24 10:27:33;;;;;;;25.93;14.67;;;14.60;99.90;;;;;;5045646;28;20198;-68
2022/10/24 10:30:19;;;;;;;25.40;15.27;;;14.60;99.90;;;;;;5045298;28;20193;-69
2022/10/24 10:32:57;;;;;;;24.60;14.03;;;14.60;99.90;;;;;;5036136;28;20208;-69
2022/10/24 10:35:31;;;;;;;22.07;13.37;;;14.60;99.90;;;;;;5044597;28;20285;-66
2022/10/24 10:38:10;;;;;;;25.77;13.97;;;14.70;99.90;;;;;;5045311;28;20189;-67
2022/10/24 10:40:44;;;;;;;22.23;13.37;;;14.70;99.90;;;;;;5045200;28;20189;-68
2022/10/24 10:43:27;;;;;;;18.10;11.17;;;14.70;99.90;;;;;;5044851;28;20213;-69
2022/10/24 10:46:06;;;;;;;22.07;12.00;;;14.70;99.90;;;;;;5034071;28;20206;-67
2022/10/24 10:48:47;;;;;;;20.13;11.77;;;14.80;99.90;;;;;;5031774;28;20198;-68
2022/10/24 10:51:28;;;;;;;18.77;10.53;;;14.70;99.90;;;;;;5031411;28;20202;-69
2022/10/24 10:54:06;;;;;;;16.70;10.93;;;14.80;99.90;;;;;;5056123;27;20190;-69
2022/10/24 10:56:42;;;;;;;14.10;9.40;;;14.80;99.90;;;;;;5040241;28;20678;-68
2022/10/24 10:59:25;;;;;;;11.63;9.00;;;14.80;99.90;;;;;;5044516;28;20676;-67
2022/10/24 11:01:59;;;;;;;15.87;9.47;;;14.80;99.90;;;;;;5024325;28;20195;-67
2022/10/24 11:04:33;;;;;;;15.13;9.60;;;14.80;99.90;;;;;;5017073;28;20638;-67
2022/10/24 11:07:07;;;;;;;17.27;9.47;;;14.80;99.90;;;;;;5011833;28;20217;-67
2022/10/24 11:09:39;;;;;;;16.40;10.33;;;14.80;99.90;;;;;;5011938;28;20625;-68
2022/10/24 11:12:14;;;;;;;15.83;10.17;;;14.90;99.90;;;;;;5011393;28;20247;-67
2022/10/24 11:14:45;;;;;;;16.77;10.23;;;14.90;99.90;;;;;;5010521;28;20202;-69
2022/10/24 11:17:17;;;;;;;14.87;9.93;;;14.90;99.90;;;;;;5011338;28;20194;-70
2022/10/24 11:19:59;;;;;;;19.33;10.43;;;14.90;99.90;;;;;;5011148;28;20207;-68
2022/10/24 11:22:42;;;;;;;18.37;10.43;;;14.90;99.90;;;;;;5010631;28;20202;-68
2022/10/24 11:25:23;;;;;;;21.57;10.43;;;14.90;99.90;;;;;;5009995;28;20211;-67
2022/10/24 11:27:54;;;;;;;17.50;11.17;;;14.90;99.90;;;;;;5001861;28;20206;-68
2022/10/24 11:30:30;;;;;;;18.33;11.07;;;14.90;99.90;;;;;;4996895;28;20203;-70
2022/10/24 11:33:02;;;;;;;16.30;10.37;;;14.90;99.90;;;;;;4996757;28;20206;-69
2022/10/24 11:35:31;;;;;;;16.83;11.73;;;14.90;99.90;;;;;;5005111;28;20292;-67
2022/10/24 11:38:07;;;;;;;19.17;11.20;;;15.00;99.90;;;;;;4995716;28;20661;-69
2022/10/24 11:40:36;;;;;;;18.23;11.43;;;15.00;99.90;;;;;;4995674;28;20561;-68
2022/10/24 11:43:13;;;;;;;18.30;11.87;;;15.10;99.90;;;;;;4998183;28;20230;-67
2022/10/24 11:45:47;;;;;;;18.57;12.07;;;15.10;99.90;;;;;;5010471;28;20210;-67
2022/10/24 11:48:19;;;;;;;21.60;12.30;;;15.20;99.90;;;;;;5008814;28;20203;-67
2022/10/24 11:50:51;;;;;;;18.20;10.70;;;15.20;99.90;;;;;;5009614;28;20563;-68
2022/10/24 11:53:27;;;;;;;16.90;10.93;;;15.30;99.90;;;;;;5009577;28;20283;-71
2022/10/24 11:55:57;;;;;;;16.40;10.87;;;15.30;99.90;;;;;;5005977;28;20203;-67
2022/10/24 11:58:26;;;;;;;15.50;10.23;;;15.30;99.90;;;;;;5021592;28;20214;-67
2022/10/24 12:01:14;;;;;;;13.27;9.23;;;15.40;99.90;;;;;;4991382;28;20225;-69
2022/10/24 12:04:05;;;;;;;13.60;8.73;;;15.40;99.90;;;;;;5010435;28;20235;-68
2022/10/24 12:07:16;;;;;;;14.43;9.17;;;15.40;99.90;;;;;;5009210;28;20199;-68
2022/10/24 12:10:06;;;;;;;17.23;9.60;;;15.40;99.90;;;;;;5000232;28;20213;-68
2022/10/24 12:12:51;;;;;;;15.23;9.47;;;15.40;99.90;;;;;;4993474;28;20564;-71
2022/10/24 12:15:33;;;;;;;15.30;10.27;;;15.50;99.90;;;;;;5011854;28;20652;-66
2022/10/24 12:18:07;;;;;;;12.93;9.13;;;15.50;99.90;;;;;;5008998;28;20211;-68
2022/10/24 12:20:35;;;;;;;14.07;9.63;;;15.50;99.90;;;;;;5009813;28;20236;-68
2022/10/24 12:23:03;;;;;;;16.43;11.13;;;15.60;99.90;;;;;;5008771;28;20227;-68
2022/10/24 12:25:34;;;;;;;14.83;10.70;;;15.60;99.90;;;;;;5010498;28;20381;-68
2022/10/24 12:28:02;;;;;;;16.83;10.90;;;15.60;99.90;;;;;;5010196;28;20286;-69
2022/10/24 12:30:32;;;;;;;18.07;10.73;;;15.60;99.90;;;;;;5010164;28;20202;-68
2022/10/24 12:33:10;;;;;;;14.87;10.10;;;15.50;99.90;;;;;;5010279;28;20195;-68
2022/10/24 12:35:58;;;;;;;14.20;9.13;;;15.50;99.90;;;;;;5009819;28;20228;-69
2022/10/24 12:39:05;;;;;;;15.47;10.43;;;15.50;99.90;;;;;;5031841;28;20198;-71
2022/10/24 12:41:39;;;;;;;14.93;10.40;;;15.50;99.90;;;;;;4991360;28;20200;-70
2022/10/24 12:44:43;;;;;;;16.70;10.33;;;15.50;99.90;;;;;;5001641;28;20206;-68
2022/10/24 12:47:37;;;;;;;15.53;10.97;;;15.50;99.90;;;;;;5010195;28;20526;-68
2022/10/24 12:50:41;;;;;;;15.47;9.93;;;15.50;99.90;;;;;;5015225;28;20664;-68
2022/10/24 12:53:30;;;;;;;17.87;10.60;;;15.40;99.90;;;;;;5009362;28;20325;-67
2022/10/24 12:56:18;;;;;;;17.87;10.80;;;15.40;99.90;;;;;;5009934;28;20245;-68
2022/10/24 12:58:57;;;;;;;14.43;9.87;;;15.50;99.90;;;;;;5019088;28;20204;-67
2022/10/24 13:01:28;;;;;;;16.00;10.87;;;15.40;99.90;;;;;;5010099;28;20714;-68
2022/10/24 13:04:40;;;;;;;20.17;13.50;;;15.40;99.90;;;;;;5049864;28;20237;-69
2022/10/24 18:08:33;;;;;;;63.07;39.03;;;11.30;99.90;;;;;;5071166;28;20629;-70
2022/10/24 18:11:01;;;;;;;57.40;36.97;;;12.40;99.90;;;;;;5069688;28;20633;-69
2022/10/24 18:13:28;;;;;;;68.03;39.27;;;12.40;99.90;;;;;;5052150;28;20279;-72
2022/10/24 18:15:54;;;;;;;64.33;39.37;;;12.40;99.90;;;;;;5048988;28;20216;-71
2022/10/24 18:18:22;;;;;;;59.20;36.17;;;12.40;99.90;;;;;;5050153;28;20225;-71
2022/10/24 18:20:48;;;;;;;62.67;35.63;;;12.40;99.90;;;;;;5087741;28;20253;-71
2022/10/24 18:23:15;;;;;;;58.70;35.37;;;12.40;99.90;;;;;;5089904;28;20204;-72
2022/10/24 18:25:43;;;;;;;59.00;36.17;;;12.30;99.90;;;;;;5075414;28;20197;-69
2022/10/24 18:28:10;;;;;;;57.50;35.53;;;12.40;99.90;;;;;;5067995;28;21026;-72
2022/10/24 18:30:37;;;;;;;60.47;36.97;;;12.40;99.90;;;;;;5064777;28;20197;-70
2022/10/24 18:33:04;;;;;;;58.57;36.53;;;12.40;99.90;;;;;;5079171;28;20228;-69
2022/10/24 18:35:32;;;;;;;58.73;35.70;;;12.40;99.90;;;;;;5088830;28;20204;-71
2022/10/24 18:38:00;;;;;;;67.27;40.27;;;12.40;99.90;;;;;;5069394;28;20217;-68
2022/10/24 18:40:28;;;;;;;66.30;40.97;;;12.40;99.90;;;;;;5068607;28;20209;-69
2022/10/24 18:43:03;;;;;;;74.97;41.93;;;12.40;99.90;;;;;;5068041;28;20545;-69
2022/10/24 18:45:30;;;;;;;63.37;37.10;;;12.40;99.90;;;;;;5052151;28;20201;-69
2022/10/24 18:47:57;;;;;;;64.40;37.90;;;12.30;99.90;;;;;;5067074;28;20209;-68
2022/10/24 18:50:25;;;;;;;56.27;35.10;;;12.40;99.90;;;;;;5070682;28;20215;-70
2022/10/24 18:52:58;;;;;;;57.73;35.70;;;12.40;99.90;;;;;;5067512;28;20208;-70
2022/10/24 18:55:26;;;;;;;61.13;35.00;;;12.30;99.90;;;;;;5063769;28;20204;-69
2022/10/24 18:57:53;;;;;;;59.60;35.53;;;12.30;99.90;;;;;;5064113;28;20216;-71
2022/10/24 19:00:24;;;;;;;53.90;33.40;;;12.30;99.90;;;;;;5044511;28;20214;-72
2022/10/24 19:02:57;;;;;;;58.43;34.97;;;12.30;99.90;;;;;;5044136;28;20208;-72
2022/10/24 19:05:29;;;;;;;60.00;35.70;;;12.20;99.90;;;;;;5054573;28;20189;-73
2022/10/24 19:07:56;;;;;;;57.63;34.13;;;12.20;99.90;;;;;;5054143;28;20233;-70
2022/10/24 19:10:25;;;;;;;54.97;34.77;;;12.20;99.90;;;;;;5054191;28;20679;-73
2022/10/24 19:12:53;;;;;;;50.73;32.50;;;12.30;99.90;;;;;;5054354;28;20222;-70
2022/10/24 19:15:22;;;;;;;53.13;33.37;;;12.20;99.90;;;;;;5055324;28;20205;-72
2022/10/24 19:17:51;;;;;;;58.57;35.17;;;12.20;99.90;;;;;;5054833;28;20205;-71
2022/10/24 19:20:22;;;;;;;58.57;36.20;;;12.20;99.90;;;;;;5052983;28;20241;-72
2022/10/24 19:22:49;;;;;;;49.27;31.63;;;12.20;99.90;;;;;;5034544;28;20545;-71
2022/10/24 19:25:16;;;;;;;52.27;31.50;;;12.20;99.90;;;;;;5050240;28;20201;-71
2022/10/24 19:27:43;;;;;;;54.30;31.70;;;12.20;99.90;;;;;;5054392;28;20292;-70
2022/10/24 19:30:12;;;;;;;51.77;32.37;;;12.20;99.90;;;;;;5054498;28;20252;-70
2022/10/24 19:32:40;;;;;;;54.77;32.40;;;12.20;99.90;;;;;;5054563;28;20556;-70
2022/10/24 19:35:07;;;;;;;53.03;32.90;;;12.10;99.90;;;;;;5055820;28;20212;-73
2022/10/24 19:37:35;;;;;;;49.23;31.70;;;12.10;99.90;;;;;;5054416;28;20229;-71
2022/10/24 19:40:03;;;;;;;50.77;31.73;;;12.10;99.90;;;;;;5059007;28;20702;-71
2022/10/24 19:42:30;;;;;;;49.60;31.47;;;12.10;99.90;;;;;;5063334;28;20203;-70
2022/10/24 19:44:56;;;;;;;52.43;32.47;;;12.10;99.90;;;;;;5064088;28;20201;-69
2022/10/24 19:47:23;;;;;;;50.23;31.37;;;12.10;99.90;;;;;;5059118;28;20201;-71
2022/10/24 19:49:51;;;;;;;47.17;29.87;;;12.00;99.90;;;;;;5061754;28;20207;-70
2022/10/24 19:52:18;;;;;;;48.47;30.50;;;12.10;99.90;;;;;;5061752;28;20193;-73
2022/10/24 19:54:45;;;;;;;49.83;29.83;;;12.00;99.90;;;;;;5056084;28;20212;-72
2022/10/24 19:57:12;;;;;;;48.13;28.60;;;12.00;99.90;;;;;;5061408;28;20205;-71
2022/10/24 19:59:39;;;;;;;54.53;31.70;;;12.00;99.90;;;;;;5062557;28;20221;-71
2022/10/24 20:02:07;;;;;;;47.97;29.67;;;11.90;99.90;;;;;;5062376;28;20201;-71
2022/10/24 20:04:38;;;;;;;58.97;33.40;;;11.90;99.90;;;;;;5049550;28;20300;-70
2022/10/24 20:07:07;;;;;;;59.30;35.07;;;11.90;99.90;;;;;;5057471;28;20226;-71
2022/10/24 20:09:34;;;;;;;67.33;39.73;;;11.90;99.90;;;;;;5062412;28;20201;-70
2022/10/24 20:12:01;;;;;;;67.40;38.97;;;11.80;99.90;;;;;;5043969;28;20202;-70
2022/10/24 20:14:28;;;;;;;70.40;41.27;;;11.80;99.90;;;;;;5052482;28;20542;-70
2022/10/24 20:16:55;;;;;;;64.17;38.77;;;11.80;99.90;;;;;;5053199;28;20570;-68
2022/10/24 20:19:22;;;;;;;64.83;40.27;;;11.80;99.90;;;;;;5052892;28;20226;-71
2022/10/24 20:21:48;;;;;;;68.57;39.63;;;11.80;99.90;;;;;;5055278;28;20231;-71
2022/10/24 20:24:17;;;;;;;60.83;36.27;;;11.80;99.90;;;;;;5060853;28;20198;-70
2022/10/24 20:26:44;;;;;;;66.00;38.33;;;11.80;99.90;;;;;;5057746;28;20232;-68
2022/10/24 20:29:13;;;;;;;63.13;39.40;;;11.80;99.90;;;;;;5039065;28;20208;-71
2022/10/24 20:31:44;;;;;;;61.93;36.83;;;11.80;99.90;;;;;;5032799;28;20233;-69
2022/10/24 20:34:11;;;;;;;64.00;39.83;;;11.80;99.90;;;;;;5034024;28;20620;-71
2022/10/24 20:36:40;;;;;;;63.77;36.13;;;11.80;99.90;;;;;;5032814;28;20211;-72
2022/10/24 20:39:08;;;;;;;53.97;34.80;;;11.80;99.90;;;;;;5048371;28;20244;-70
2022/10/24 20:41:37;;;;;;;54.03;32.57;;;11.80;99.90;;;;;;5072711;28;20211;-70
2022/10/24 20:44:05;;;;;;;54.20;31.40;;;11.80;99.90;;;;;;5073019;28;20642;-70
2022/10/24 20:46:32;;;;;;;48.13;29.23;;;11.80;99.90;;;;;;5050589;28;20258;-71
2022/10/24 20:48:59;;;;;;;39.63;26.53;;;11.90;99.90;;;;;;5052990;28;20197;-69
2022/10/24 20:51:26;;;;;;;39.27;26.47;;;11.90;99.90;;;;;;5050378;28;20295;-70
2022/10/24 20:53:53;;;;;;;38.87;26.53;;;11.90;99.90;;;;;;5040771;28;20216;-70
2022/10/24 20:56:21;;;;;;;43.07;25.83;;;11.90;99.90;;;;;;5032772;28;20216;-69
2022/10/24 20:58:51;;;;;;;38.67;24.83;;;11.90;99.90;;;;;;5032321;28;20226;-70
2022/10/24 21:01:20;;;;;;;38.13;24.70;;;11.90;99.90;;;;;;5045551;28;20560;-71
2022/10/24 21:03:47;;;;;;;43.77;25.17;;;11.90;99.90;;;;;;5052104;28;20235;-72
2022/10/24 21:06:16;;;;;;;37.30;24.37;;;12.00;99.90;;;;;;5046167;28;20209;-71
2022/10/24 21:08:43;;;;;;;39.83;25.00;;;12.00;99.90;;;;;;5037138;28;20206;-69
2022/10/24 21:11:13;;;;;;;40.00;25.63;;;12.00;99.90;;;;;;5032386;28;20220;-70
2022/10/24 21:13:40;;;;;;;37.93;24.73;;;12.00;99.90;;;;;;5032370;28;20190;-70
2022/10/24 21:16:09;;;;;;;37.30;24.17;;;12.10;99.90;;;;;;5034788;28;20205;-70